Time;durP1;ratioP1;P1;durP2;ratioP2;P2;SDS_P1;SDS_P2;PMS_P1;PMS_P2;Temp;Humidity;BMP_temperature;BMP_pressure;BME280_temperature;BME280_humidity;BME280_pressure;Samples;Min_cycle;Max_cycle;Signal;HPM_P1;HPM_P2
2022/07/11 00:01:42;;;;;;;0.50;0.50;;;13.50;1.00;;;;;;5032068;28;20265;-76
2022/07/11 00:04:07;;;;;;;0.50;0.50;;;13.50;1.00;;;;;;5034540;28;20176;-77
2022/07/11 00:06:33;;;;;;;0.40;0.40;;;13.50;1.00;;;;;;5034577;28;20239;-77
2022/07/11 00:08:58;;;;;;;0.40;0.40;;;13.50;1.00;;;;;;5034070;28;20206;-77
2022/07/11 00:11:24;;;;;;;0.40;0.40;;;13.50;1.00;;;;;;5034430;28;20564;-77
2022/07/11 00:13:50;;;;;;;0.40;0.40;;;13.60;1.00;;;;;;5031950;28;20186;-77
2022/07/11 00:16:15;;;;;;;0.40;0.40;;;13.60;1.00;;;;;;5033715;28;20172;-77
2022/07/11 00:18:41;;;;;;;0.40;0.40;;;13.70;1.00;;;;;;5033471;28;20168;-77
2022/07/11 00:21:07;;;;;;;0.60;0.60;;;13.80;1.00;;;;;;5032947;28;20633;-77
2022/07/11 00:23:32;;;;;;;0.30;0.30;;;13.80;1.00;;;;;;5031493;28;20196;-77
2022/07/11 00:25:58;;;;;;;0.43;0.43;;;13.70;1.00;;;;;;5034853;28;20285;-77
2022/07/11 00:28:23;;;;;;;0.30;0.30;;;13.80;1.00;;;;;;5036163;28;20270;-78
2022/07/11 00:30:49;;;;;;;0.40;0.40;;;13.80;1.00;;;;;;5036030;28;20198;-77
2022/07/11 00:33:15;;;;;;;0.40;0.40;;;13.80;1.00;;;;;;5033658;28;20563;-78
2022/07/11 00:35:40;;;;;;;0.40;0.40;;;13.80;1.00;;;;;;5034026;28;20176;-77
2022/07/11 00:38:06;;;;;;;0.40;0.40;;;13.80;1.00;;;;;;5035800;28;20180;-78
2022/07/11 00:40:31;;;;;;;0.40;0.40;;;13.80;1.00;;;;;;5034803;28;20183;-78
2022/07/11 00:42:57;;;;;;;0.40;0.40;;;13.70;1.00;;;;;;5034393;28;20196;-78
2022/07/11 00:45:22;;;;;;;0.40;0.40;;;13.70;1.00;;;;;;5036930;28;20550;-78
2022/07/11 00:47:48;;;;;;;0.40;0.40;;;13.70;1.00;;;;;;5031906;28;20177;-78
2022/07/11 00:50:14;;;;;;;0.50;0.50;;;13.70;1.00;;;;;;5052681;28;20592;-78
2022/07/11 00:52:40;;;;;;;0.40;0.40;;;13.70;1.00;;;;;;5046960;28;20188;-78
2022/07/11 00:55:07;;;;;;;0.43;0.43;;;13.80;1.00;;;;;;5038331;28;20681;-77
2022/07/11 00:57:34;;;;;;;0.30;0.30;;;13.80;1.00;;;;;;5046477;28;20251;-78
2022/07/11 01:00:00;;;;;;;0.50;0.50;;;13.80;1.00;;;;;;5066800;28;20190;-77
2022/07/11 01:02:25;;;;;;;0.30;0.30;;;13.70;1.00;;;;;;5067980;28;20192;-78
2022/07/11 01:04:52;;;;;;;0.40;0.40;;;13.70;1.00;;;;;;5057302;28;20190;-77
2022/07/11 01:07:17;;;;;;;0.40;0.40;;;13.70;1.00;;;;;;5065500;28;20195;-77
2022/07/11 01:09:43;;;;;;;0.43;0.43;;;13.60;1.00;;;;;;5075449;28;20163;-76
2022/07/11 01:12:09;;;;;;;0.40;0.40;;;13.60;1.00;;;;;;5064933;28;20210;-78
2022/07/11 01:14:34;;;;;;;0.40;0.40;;;13.50;1.00;;;;;;5041338;28;20194;-78
2022/07/11 01:17:00;;;;;;;0.40;0.40;;;13.50;1.00;;;;;;5039663;28;20721;-78
2022/07/11 01:19:25;;;;;;;0.50;0.50;;;13.50;1.00;;;;;;5037630;28;20633;-78
2022/07/11 01:21:55;;;;;;;0.50;0.50;;;13.40;1.00;;;;;;5035637;28;20195;-78
2022/07/11 01:24:22;;;;;;;0.50;0.50;;;13.40;1.00;;;;;;5036970;28;20188;-77
2022/07/11 01:26:48;;;;;;;0.40;0.40;;;13.40;1.00;;;;;;5039673;28;20215;-78
2022/07/11 01:29:14;;;;;;;0.40;0.40;;;13.40;1.00;;;;;;5048276;28;20186;-78
2022/07/11 01:31:41;;;;;;;0.30;0.30;;;13.30;1.00;;;;;;5054836;28;20175;-78
2022/07/11 01:34:06;;;;;;;0.40;0.40;;;13.20;1.00;;;;;;5037268;28;20168;-77
2022/07/11 01:36:32;;;;;;;0.40;0.40;;;13.20;1.00;;;;;;5037518;28;20275;-77
2022/07/11 01:38:58;;;;;;;0.50;0.50;;;13.20;1.00;;;;;;5039312;28;20172;-77
2022/07/11 01:41:24;;;;;;;0.40;0.40;;;13.20;1.00;;;;;;5041534;28;20184;-78
2022/07/11 01:43:50;;;;;;;0.40;0.40;;;13.20;1.00;;;;;;5039968;28;20263;-78
2022/07/11 01:46:16;;;;;;;0.50;0.50;;;13.10;1.00;;;;;;5042911;28;20246;-78
2022/07/11 01:48:42;;;;;;;0.50;0.50;;;13.10;1.00;;;;;;5043740;28;20186;-77
2022/07/11 01:51:08;;;;;;;0.40;0.40;;;13.10;1.00;;;;;;5042292;28;20211;-78
2022/07/11 01:53:34;;;;;;;0.40;0.40;;;13.10;1.00;;;;;;5040386;28;20294;-77
2022/07/11 01:55:59;;;;;;;0.40;0.40;;;13.10;1.00;;;;;;5044810;28;20199;-78
2022/07/11 01:58:25;;;;;;;0.50;0.50;;;13.10;1.00;;;;;;5044162;28;20183;-78
2022/07/11 02:00:50;;;;;;;0.40;0.40;;;13.20;1.00;;;;;;5044163;28;20245;-78
2022/07/11 02:03:16;;;;;;;0.40;0.40;;;13.20;2.80;;;;;;5041622;28;20212;-78
2022/07/11 02:05:42;;;;;;;0.40;0.40;;;13.20;5.40;;;;;;5043808;28;20549;-78
2022/07/11 02:08:14;;;;;;;0.40;0.40;;;13.20;20.20;;;;;;5043870;28;20235;-77
2022/07/11 02:10:45;;;;;;;0.50;0.50;;;13.20;52.00;;;;;;5043530;28;20175;-78
2022/07/11 02:13:12;;;;;;;0.30;0.30;;;13.20;43.00;;;;;;5041866;28;20238;-77
2022/07/11 02:15:39;;;;;;;0.50;0.50;;;13.20;44.20;;;;;;5043074;28;20286;-78
2022/07/11 02:18:05;;;;;;;0.40;0.40;;;13.20;39.80;;;;;;5042834;28;20175;-78
2022/07/11 02:20:31;;;;;;;0.40;0.40;;;13.20;48.20;;;;;;5042427;28;20537;-78
2022/07/11 02:22:58;;;;;;;0.40;0.40;;;13.20;83.00;;;;;;5040617;28;20204;-77
2022/07/11 02:25:24;;;;;;;0.40;0.40;;;13.30;84.40;;;;;;5041892;28;20290;-77
2022/07/11 02:27:50;;;;;;;0.43;0.43;;;13.20;57.20;;;;;;5043486;28;20207;-78
2022/07/11 02:30:15;;;;;;;0.40;0.40;;;13.20;38.80;;;;;;5041809;28;20175;-77
2022/07/11 02:32:42;;;;;;;0.30;0.30;;;13.20;35.50;;;;;;5041725;28;20191;-77
2022/07/11 02:35:08;;;;;;;0.40;0.40;;;13.30;40.10;;;;;;5042165;28;20187;-77
2022/07/11 02:37:34;;;;;;;0.40;0.40;;;13.30;77.90;;;;;;5042633;28;20292;-77
2022/07/11 02:40:00;;;;;;;0.40;0.40;;;13.40;95.70;;;;;;5042035;28;20203;-78
2022/07/11 02:42:25;;;;;;;0.40;0.40;;;13.40;99.90;;;;;;5039545;28;20195;-77
2022/07/11 02:44:51;;;;;;;0.50;0.50;;;13.30;70.60;;;;;;5041181;28;20182;-77
2022/07/11 02:47:16;;;;;;;0.43;0.43;;;13.30;54.20;;;;;;5039679;28;20211;-77
2022/07/11 02:49:42;;;;;;;0.30;0.30;;;13.20;37.90;;;;;;5041120;28;20187;-77
2022/07/11 02:52:08;;;;;;;0.40;0.40;;;13.20;31.30;;;;;;5038980;28;20206;-77
2022/07/11 02:54:34;;;;;;;0.50;0.50;;;13.20;28.20;;;;;;5041408;28;20179;-77
2022/07/11 02:56:59;;;;;;;0.50;0.50;;;13.30;27.80;;;;;;5042487;28;20172;-78
2022/07/11 02:59:25;;;;;;;0.50;0.50;;;13.30;34.50;;;;;;5042100;28;20234;-78
2022/07/11 03:01:50;;;;;;;0.40;0.40;;;13.30;38.10;;;;;;5039781;28;20233;-77
2022/07/11 03:04:16;;;;;;;0.40;0.40;;;13.20;47.80;;;;;;5041326;28;20636;-78
2022/07/11 03:06:42;;;;;;;0.43;0.43;;;13.20;55.00;;;;;;5040985;28;20719;-78
2022/07/11 03:09:08;;;;;;;0.43;0.43;;;13.30;57.80;;;;;;5041144;28;20711;-78
2022/07/11 03:11:34;;;;;;;0.40;0.40;;;13.30;52.00;;;;;;5038104;28;20282;-77
2022/07/11 03:14:00;;;;;;;0.40;0.40;;;13.40;39.10;;;;;;5037220;28;20424;-77
2022/07/11 03:16:27;;;;;;;0.40;0.40;;;13.40;19.60;;;;;;5039625;28;20187;-77
2022/07/11 03:18:52;;;;;;;0.40;0.40;;;13.50;19.30;;;;;;5039548;28;20307;-77
2022/07/11 03:21:18;;;;;;;0.30;0.30;;;13.50;13.90;;;;;;5039394;28;20655;-77
2022/07/11 03:23:43;;;;;;;0.40;0.40;;;13.50;19.60;;;;;;5037517;28;20731;-77
2022/07/11 03:26:09;;;;;;;0.40;0.40;;;13.50;5.30;;;;;;5039328;28;20219;-77
2022/07/11 03:28:34;;;;;;;0.50;0.50;;;13.50;1.00;;;;;;5039686;28;20179;-77
2022/07/11 03:31:00;;;;;;;0.50;0.50;;;13.60;1.30;;;;;;5039266;28;20254;-77
2022/07/11 03:33:25;;;;;;;0.40;0.40;;;13.60;1.00;;;;;;5038379;28;20203;-77
2022/07/11 03:35:51;;;;;;;0.40;0.40;;;13.70;1.00;;;;;;5039186;28;20179;-77
2022/07/11 03:38:20;;;;;;;0.40;0.40;;;13.70;1.00;;;;;;5040276;28;20633;-78
2022/07/11 03:40:47;;;;;;;0.50;0.50;;;13.70;1.00;;;;;;5038259;28;20213;-78
2022/07/11 03:43:13;;;;;;;0.33;0.33;;;13.70;1.00;;;;;;5035200;28;20575;-78
2022/07/11 03:45:40;;;;;;;0.40;0.40;;;13.60;1.00;;;;;;5037141;28;20758;-78
2022/07/11 03:48:06;;;;;;;0.50;0.50;;;13.60;1.00;;;;;;5037988;28;20656;-78
2022/07/11 03:50:31;;;;;;;0.37;0.37;;;13.70;1.00;;;;;;5036612;28;20176;-77
2022/07/11 03:52:58;;;;;;;0.30;0.30;;;13.70;1.00;;;;;;5034398;28;20721;-77
2022/07/11 03:55:24;;;;;;;0.50;0.50;;;13.70;1.00;;;;;;5035978;28;20179;-78
2022/07/11 03:57:49;;;;;;;0.30;0.30;;;13.70;1.00;;;;;;5036756;28;20183;-77
2022/07/11 04:00:16;;;;;;;0.40;0.40;;;13.70;1.00;;;;;;5036730;28;20172;-77
2022/07/11 04:02:41;;;;;;;0.40;0.40;;;13.80;1.00;;;;;;5033820;28;20211;-78
2022/07/11 04:05:07;;;;;;;0.30;0.30;;;13.90;1.00;;;;;;5038079;28;20180;-78
2022/07/11 04:07:33;;;;;;;0.33;0.33;;;13.90;1.00;;;;;;5040824;28;20176;-77
2022/07/11 04:09:59;;;;;;;0.40;0.40;;;14.00;1.00;;;;;;5039936;28;20645;-78
2022/07/11 04:12:25;;;;;;;0.50;0.50;;;14.10;1.00;;;;;;5039509;28;20281;-78
2022/07/11 04:14:51;;;;;;;0.40;0.40;;;14.10;1.00;;;;;;5041853;28;20208;-78
2022/07/11 04:17:16;;;;;;;0.40;0.40;;;14.10;1.00;;;;;;5052737;28;20179;-78
2022/07/11 04:19:42;;;;;;;0.30;0.30;;;14.10;1.00;;;;;;5052337;28;20199;-79
2022/07/11 04:22:08;;;;;;;0.30;0.30;;;14.10;1.00;;;;;;5045473;28;20234;-78
2022/07/11 04:24:34;;;;;;;0.33;0.33;;;14.10;1.00;;;;;;5045423;28;20176;-79
2022/07/11 04:26:59;;;;;;;0.40;0.40;;;14.10;1.00;;;;;;5046287;28;20219;-79
2022/07/11 04:29:25;;;;;;;0.33;0.33;;;14.10;1.00;;;;;;5044268;28;20191;-78
2022/07/11 04:31:51;;;;;;;0.40;0.40;;;14.20;1.00;;;;;;5044461;28;20681;-79
2022/07/11 04:34:17;;;;;;;0.43;0.43;;;14.20;1.00;;;;;;5044576;28;20179;-79
2022/07/11 04:36:43;;;;;;;0.40;0.40;;;14.30;1.00;;;;;;5034843;28;20644;-79
2022/07/11 04:39:09;;;;;;;0.30;0.30;;;14.30;1.00;;;;;;5033463;28;20187;-78
2022/07/11 04:41:35;;;;;;;0.43;0.43;;;14.40;1.00;;;;;;5031814;28;20683;-78
2022/07/11 04:44:00;;;;;;;0.40;0.40;;;14.40;1.00;;;;;;5032685;28;20214;-78
2022/07/11 04:46:26;;;;;;;0.40;0.40;;;14.50;1.00;;;;;;5033106;28;20245;-78
2022/07/11 04:48:52;;;;;;;0.40;0.40;;;14.50;1.00;;;;;;5035517;28;20650;-78
2022/07/11 04:51:17;;;;;;;0.40;0.40;;;14.50;1.00;;;;;;5046964;28;20175;-77
2022/07/11 04:53:43;;;;;;;0.40;0.40;;;14.60;1.00;;;;;;5040954;28;20206;-78
2022/07/11 04:56:09;;;;;;;0.40;0.40;;;14.60;1.00;;;;;;5044517;28;20673;-78
2022/07/11 04:58:35;;;;;;;0.40;0.40;;;14.60;1.00;;;;;;5056791;28;20191;-78
2022/07/11 05:01:01;;;;;;;0.30;0.30;;;14.60;1.00;;;;;;5057039;28;20231;-78
2022/07/11 05:03:26;;;;;;;0.50;0.50;;;14.70;1.00;;;;;;5055645;28;20211;-78
2022/07/11 05:05:52;;;;;;;0.50;0.50;;;14.70;1.00;;;;;;5059565;28;20233;-78
2022/07/11 05:08:18;;;;;;;0.40;0.40;;;14.60;1.00;;;;;;5068964;28;20164;-78
2022/07/11 05:10:43;;;;;;;0.40;0.40;;;14.60;1.00;;;;;;5067888;28;20179;-79
2022/07/11 05:13:09;;;;;;;0.47;0.47;;;14.70;1.00;;;;;;5048785;28;20196;-78
2022/07/11 05:15:34;;;;;;;0.30;0.30;;;14.70;1.00;;;;;;5044671;28;20187;-79
2022/07/11 05:18:00;;;;;;;0.50;0.50;;;14.70;1.00;;;;;;5042317;28;20248;-78
2022/07/11 05:20:25;;;;;;;0.40;0.40;;;14.80;1.00;;;;;;5042224;28;20266;-78
2022/07/11 05:22:52;;;;;;;0.40;0.40;;;14.90;1.00;;;;;;5040727;28;20587;-78
2022/07/11 05:25:17;;;;;;;0.30;0.30;;;15.00;1.00;;;;;;5040839;28;20200;-78
2022/07/11 05:27:43;;;;;;;0.30;0.30;;;14.90;1.00;;;;;;5048294;28;20676;-78
2022/07/11 05:30:09;;;;;;;0.40;0.40;;;15.10;1.00;;;;;;5042373;28;20182;-79
2022/07/11 05:32:34;;;;;;;0.40;0.40;;;15.20;1.00;;;;;;5042091;28;20203;-78
2022/07/11 05:35:02;;;;;;;0.40;0.40;;;15.20;1.00;;;;;;5041071;28;20182;-78
2022/07/11 05:37:28;;;;;;;0.30;0.30;;;15.20;1.00;;;;;;5040256;28;20180;-78
2022/07/11 05:39:53;;;;;;;0.40;0.40;;;15.20;1.00;;;;;;5040181;28;20184;-79
2022/07/11 05:42:19;;;;;;;0.47;0.47;;;15.30;1.00;;;;;;5041021;28;20294;-79
2022/07/11 05:44:44;;;;;;;0.40;0.40;;;15.40;1.00;;;;;;5043065;28;20247;-78
2022/07/11 05:47:10;;;;;;;0.30;0.30;;;15.40;1.00;;;;;;5039996;28;20219;-78
2022/07/11 05:49:36;;;;;;;0.40;0.40;;;15.50;1.00;;;;;;5050035;28;20179;-79
2022/07/11 05:52:04;;;;;;;0.40;0.40;;;15.50;1.00;;;;;;5060079;28;20202;-79
2022/07/11 05:54:30;;;;;;;0.40;0.40;;;15.60;1.00;;;;;;5061124;28;20227;-78
2022/07/11 05:56:55;;;;;;;0.40;0.40;;;15.70;1.00;;;;;;5050184;28;20187;-79
2022/07/11 05:59:21;;;;;;;0.30;0.30;;;15.70;1.00;;;;;;5047720;28;20171;-79
2022/07/11 06:01:47;;;;;;;0.30;0.30;;;15.80;1.00;;;;;;5037988;28;20211;-79
2022/07/11 06:04:13;;;;;;;0.40;0.40;;;15.90;99.90;;;;;;5042354;28;20198;-79
2022/07/11 06:06:39;;;;;;;0.40;0.40;;;16.00;99.90;;;;;;5041393;28;20215;-79
2022/07/11 06:09:05;;;;;;;0.40;0.40;;;16.10;99.90;;;;;;5051027;28;20203;-79
2022/07/11 06:11:31;;;;;;;0.33;0.33;;;16.10;99.90;;;;;;5053965;28;20329;-79
2022/07/11 06:13:57;;;;;;;0.47;0.47;;;16.10;99.90;;;;;;5055180;28;20179;-78
2022/07/11 06:16:23;;;;;;;0.30;0.30;;;16.20;99.90;;;;;;5055242;28;20225;-79
2022/07/11 06:18:48;;;;;;;0.30;0.30;;;16.20;99.90;;;;;;5055654;28;20183;-78
2022/07/11 06:21:14;;;;;;;0.30;0.30;;;16.40;20.40;;;;;;5055014;28;20305;-79
2022/07/11 06:23:41;;;;;;;0.20;0.20;;;16.50;1.00;;;;;;5054319;28;20618;-79
2022/07/11 06:26:06;;;;;;;0.20;0.20;;;16.80;1.00;;;;;;5056428;28;20237;-79
2022/07/11 06:28:32;;;;;;;0.30;0.30;;;17.00;99.90;;;;;;5057563;28;20663;-79
2022/07/11 06:30:58;;;;;;;0.37;0.37;;;16.80;55.70;;;;;;5058085;28;20258;-79
2022/07/11 06:33:24;;;;;;;0.40;0.40;;;16.90;1.00;;;;;;5057953;28;20195;-78
2022/07/11 06:35:50;;;;;;;0.40;0.40;;;17.10;1.00;;;;;;5059440;28;20266;-77
2022/07/11 06:38:16;;;;;;;0.30;0.30;;;17.20;1.00;;;;;;5060145;28;20216;-78
2022/07/11 06:40:42;;;;;;;0.30;0.30;;;17.20;1.00;;;;;;5059123;28;20202;-78
2022/07/11 06:43:10;;;;;;;0.30;0.30;;;17.30;1.00;;;;;;5058473;28;20195;-79
2022/07/11 06:45:36;;;;;;;0.30;0.30;;;17.40;99.90;;;;;;5058448;28;20232;-79
2022/07/11 06:48:02;;;;;;;0.30;0.30;;;17.50;1.00;;;;;;5058392;28;20168;-79
2022/07/11 06:50:30;;;;;;;0.30;0.30;;;17.60;1.00;;;;;;5058611;28;20190;-79
2022/07/11 06:52:55;;;;;;;0.33;0.33;;;17.60;99.90;;;;;;5058266;28;20261;-79
2022/07/11 06:55:21;;;;;;;0.30;0.30;;;17.60;99.90;;;;;;5057143;28;20179;-80
2022/07/11 06:57:46;;;;;;;0.30;0.30;;;17.70;1.00;;;;;;5056518;28;20172;-79
2022/07/11 07:00:12;;;;;;;0.30;0.30;;;18.00;1.00;;;;;;5056700;28;20179;-78
2022/07/11 07:02:38;;;;;;;0.30;0.30;;;18.10;99.90;;;;;;5056521;28;20743;-78
2022/07/11 07:05:04;;;;;;;0.30;0.30;;;18.30;1.00;;;;;;5056778;28;20259;-78
2022/07/11 07:07:30;;;;;;;0.40;0.40;;;18.30;99.90;;;;;;5056609;28;20226;-79
2022/07/11 07:09:56;;;;;;;0.30;0.30;;;18.40;1.00;;;;;;5056144;28;20179;-78
2022/07/11 07:12:21;;;;;;;0.30;0.30;;;18.50;1.00;;;;;;5056432;28;20199;-78
2022/07/11 07:14:47;;;;;;;0.27;0.27;;;18.60;1.00;;;;;;5056756;28;20180;-78
2022/07/11 07:17:13;;;;;;;0.30;0.30;;;18.80;1.00;;;;;;5054695;28;20199;-78
2022/07/11 07:19:39;;;;;;;0.30;0.30;;;18.90;1.00;;;;;;5055909;28;20217;-79
2022/07/11 07:22:05;;;;;;;0.30;0.30;;;19.00;99.90;;;;;;5055906;28;20199;-77
2022/07/11 07:24:32;;;;;;;0.30;0.30;;;19.20;99.90;;;;;;5056172;28;20203;-79
2022/07/11 07:26:57;;;;;;;0.20;0.20;;;19.30;99.90;;;;;;5054530;28;20230;-79
2022/07/11 07:29:25;;;;;;;0.30;0.30;;;19.40;99.90;;;;;;5055644;28;20178;-78
2022/07/11 07:31:52;;;;;;;0.30;0.30;;;19.50;99.90;;;;;;5055575;28;20687;-78
2022/07/11 07:34:18;;;;;;;0.30;0.30;;;19.40;99.90;;;;;;5056058;28;20185;-78
2022/07/11 07:36:44;;;;;;;0.23;0.23;;;19.50;99.90;;;;;;5056034;28;20183;-78
2022/07/11 07:39:10;;;;;;;0.30;0.30;;;19.70;99.90;;;;;;5056207;28;20738;-78
2022/07/11 07:41:35;;;;;;;0.20;0.20;;;19.90;99.90;;;;;;5055321;28;20584;-78
2022/07/11 07:44:02;;;;;;;0.30;0.30;;;20.00;99.90;;;;;;5056555;28;20647;-77
2022/07/11 07:46:28;;;;;;;0.30;0.30;;;20.00;91.90;;;;;;5056984;28;20613;-78
2022/07/11 07:48:53;;;;;;;0.30;0.30;;;20.00;99.90;;;;;;5055725;28;20683;-80
2022/07/11 07:51:20;;;;;;;0.37;0.37;;;20.20;99.90;;;;;;5055836;28;20179;-79
2022/07/11 07:53:46;;;;;;;0.20;0.20;;;20.60;1.00;;;;;;5055314;28;20206;-79
2022/07/11 07:56:11;;;;;;;0.30;0.30;;;21.00;1.00;;;;;;5054766;28;20551;-78
2022/07/11 07:58:38;;;;;;;0.40;0.40;;;21.10;1.00;;;;;;5055021;28;20225;-79
2022/07/11 08:03:48;;;;;;;0.20;0.20;;;21.70;1.00;;;;;;5054970;28;20233;-77
2022/07/11 08:06:14;;;;;;;0.40;0.40;;;21.80;1.00;;;;;;5054682;28;20305;-78
2022/07/11 08:08:39;;;;;;;0.30;0.30;;;21.90;1.00;;;;;;5057046;28;20590;-78
2022/07/11 08:11:05;;;;;;;0.30;0.30;;;21.90;1.00;;;;;;5054766;28;20183;-78
2022/07/11 08:13:30;;;;;;;0.37;0.37;;;22.10;1.00;;;;;;5054911;28;20194;-77
2022/07/11 08:15:56;;;;;;;0.30;0.30;;;22.50;1.00;;;;;;5055366;28;20171;-78
2022/07/11 08:18:21;;;;;;;0.20;0.20;;;23.20;1.00;;;;;;5054951;28;20205;-79
2022/07/11 08:20:47;;;;;;;0.30;0.30;;;23.40;1.00;;;;;;5054252;28;20644;-78
2022/07/11 08:23:13;;;;;;;0.30;0.30;;;23.80;1.00;;;;;;5055261;28;20195;-78
2022/07/11 08:25:39;;;;;;;0.30;0.30;;;23.80;1.00;;;;;;5054818;28;20672;-80
2022/07/11 08:28:05;;;;;;;0.37;0.37;;;24.00;1.00;;;;;;5055329;28;20171;-80
2022/07/11 08:30:31;;;;;;;0.30;0.30;;;24.60;1.00;;;;;;5054642;28;20559;-80
2022/07/11 08:32:56;;;;;;;0.40;0.40;;;24.60;1.00;;;;;;5054988;28;20201;-78
2022/07/11 08:35:22;;;;;;;0.23;0.23;;;24.40;1.00;;;;;;5056875;28;20202;-80
2022/07/11 08:37:48;;;;;;;0.40;0.40;;;24.30;1.00;;;;;;5057866;28;20180;-81
2022/07/11 08:40:13;;;;;;;0.30;0.30;;;24.20;1.00;;;;;;5057420;28;20576;-80
2022/07/11 08:42:44;;;;;;;0.40;0.40;;;24.30;1.00;;;;;;5057958;28;20210;-80
2022/07/11 08:45:14;;;;;;;0.30;0.30;;;24.30;1.00;;;;;;5059459;28;20257;-81
2022/07/11 08:47:40;;;;;;;0.30;0.30;;;24.40;1.00;;;;;;5055318;28;20191;-80
2022/07/11 08:50:07;;;;;;;0.30;0.30;;;24.50;1.00;;;;;;5054167;28;20437;-79
2022/07/11 08:52:33;;;;;;;0.30;0.30;;;24.80;1.00;;;;;;5054879;28;20194;-81
2022/07/11 08:54:59;;;;;;;0.30;0.30;;;24.90;1.00;;;;;;5055582;28;20178;-80
2022/07/11 08:57:24;;;;;;;0.40;0.40;;;25.50;1.00;;;;;;5056419;28;20167;-79
2022/07/11 08:59:55;;;;;;;0.30;0.30;;;25.60;1.00;;;;;;5057829;28;20221;-78
2022/07/11 09:02:22;;;;;;;0.30;0.30;;;25.60;1.00;;;;;;5071730;22;20220;-77
2022/07/11 09:04:48;;;;;;;0.40;0.40;;;24.90;1.00;;;;;;5032436;28;20270;-77
2022/07/11 09:07:14;;;;;;;0.30;0.30;;;24.30;1.00;;;;;;5032677;28;20683;-76
2022/07/11 09:09:39;;;;;;;0.33;0.33;;;23.90;1.00;;;;;;5031913;28;20599;-77
2022/07/11 09:12:25;;;;;;;0.40;0.40;;;24.20;1.00;;;;;;5032214;28;20207;-77
2022/07/11 09:14:54;;;;;;;0.40;0.40;;;24.60;1.00;;;;;;5031662;28;20640;-77
2022/07/11 09:17:26;;;;;;;0.30;0.30;;;25.30;1.00;;;;;;5032331;28;20179;-76
2022/07/11 09:19:52;;;;;;;0.33;0.33;;;25.60;1.00;;;;;;5031841;28;20184;-77
2022/07/11 09:25:21;;;;;;;0.30;0.30;;;25.40;1.00;;;;;;5032397;28;20178;-76
2022/07/11 09:27:56;;;;;;;0.30;0.30;;;24.70;1.00;;;;;;5031528;28;20563;-76
2022/07/11 09:30:27;;;;;;;0.30;0.30;;;24.20;1.00;;;;;;5031545;28;20175;-75
2022/07/11 09:32:58;;;;;;;0.30;0.30;;;24.00;1.00;;;;;;5031661;28;20708;-76
2022/07/11 09:35:26;;;;;;;0.40;0.40;;;23.70;1.00;;;;;;5031773;28;20429;-75
2022/07/11 09:37:52;;;;;;;0.30;0.30;;;23.40;1.00;;;;;;5031588;28;20172;-76
2022/07/11 09:40:18;;;;;;;0.30;0.30;;;23.20;1.00;;;;;;5031111;28;20171;-75
2022/07/11 09:42:50;;;;;;;0.40;0.40;;;23.10;1.00;;;;;;5031478;28;20199;-76
2022/07/11 09:45:17;;;;;;;0.30;0.30;;;23.10;1.00;;;;;;5031527;28;20183;-76
2022/07/11 09:47:47;;;;;;;0.40;0.40;;;23.00;1.00;;;;;;5031805;28;20211;-76
2022/07/11 09:50:18;;;;;;;0.30;0.30;;;23.10;1.00;;;;;;5031004;28;20171;-75
2022/07/11 09:53:07;;;;;;;0.40;0.40;;;23.20;1.00;;;;;;5031048;28;20295;-76
2022/07/11 09:55:47;;;;;;;0.30;0.30;;;23.40;1.00;;;;;;5031433;28;20657;-76
2022/07/11 09:58:15;;;;;;;0.40;0.40;;;23.30;1.00;;;;;;5031683;28;20179;-76
2022/07/11 10:00:41;;;;;;;0.27;0.27;;;23.20;1.00;;;;;;5032799;28;20180;-76
2022/07/11 10:03:09;;;;;;;0.30;0.30;;;23.30;1.00;;;;;;5035215;28;20211;-76
2022/07/11 10:05:35;;;;;;;0.33;0.33;;;23.30;1.00;;;;;;5035214;28;20226;-77
2022/07/11 10:08:01;;;;;;;0.40;0.40;;;23.80;1.00;;;;;;5035453;28;20680;-77
2022/07/11 10:10:29;;;;;;;0.30;0.30;;;24.70;1.00;;;;;;5034818;28;20175;-76
2022/07/11 10:12:56;;;;;;;0.30;0.30;;;25.60;1.00;;;;;;5035280;28;20709;-77
2022/07/11 10:15:30;;;;;;;0.40;0.40;;;25.90;1.00;;;;;;5035064;28;20175;-76
2022/07/11 10:18:27;;;;;;;0.30;0.30;;;25.90;1.00;;;;;;5035007;28;20175;-76
2022/07/11 10:21:11;;;;;;;0.30;0.30;;;25.40;1.00;;;;;;5034435;28;20262;-76
2022/07/11 10:23:57;;;;;;;0.30;0.30;;;25.40;1.00;;;;;;5034774;28;20552;-76
2022/07/11 10:26:29;;;;;;;0.30;0.30;;;25.30;1.00;;;;;;5035349;28;20219;-76
2022/07/11 10:29:06;;;;;;;0.40;0.40;;;25.30;1.00;;;;;;5034671;28;20207;-78
2022/07/11 10:31:33;;;;;;;0.40;0.40;;;25.20;1.00;;;;;;5034949;28;20186;-76
2022/07/11 10:34:07;;;;;;;0.37;0.37;;;25.30;1.00;;;;;;5034860;28;20206;-76
2022/07/11 10:36:38;;;;;;;0.30;0.30;;;25.10;1.00;;;;;;5033530;28;20238;-76
2022/07/11 10:39:24;;;;;;;0.40;0.40;;;25.10;1.00;;;;;;5033530;28;20183;-76
2022/07/11 10:41:50;;;;;;;0.30;0.30;;;25.40;1.00;;;;;;5034689;28;20195;-77
2022/07/11 10:44:16;;;;;;;0.30;0.30;;;25.80;1.00;;;;;;5034699;28;20182;-77
2022/07/11 10:46:42;;;;;;;0.40;0.40;;;25.90;1.00;;;;;;5031164;28;20625;-76
2022/07/11 10:49:14;;;;;;;0.27;0.27;;;25.80;1.00;;;;;;5031452;28;20275;-76
2022/07/11 10:51:49;;;;;;;0.30;0.30;;;26.50;1.00;;;;;;5033086;28;20180;-76
2022/07/11 10:54:26;;;;;;;0.40;0.40;;;26.70;1.00;;;;;;5034505;28;20552;-77
2022/07/11 10:57:19;;;;;;;0.33;0.33;;;26.60;1.00;;;;;;5034349;28;20707;-77
2022/07/11 10:59:59;;;;;;;0.37;0.37;;;26.50;1.00;;;;;;5034198;28;20202;-77
2022/07/11 11:02:25;;;;;;;0.30;0.30;;;26.30;1.00;;;;;;5034335;28;20302;-77
2022/07/11 11:05:01;;;;;;;0.30;0.30;;;26.00;1.00;;;;;;5034309;28;20171;-77
2022/07/11 11:07:41;;;;;;;0.30;0.30;;;25.70;1.00;;;;;;5034072;28;20718;-77
2022/07/11 11:10:16;;;;;;;0.23;0.23;;;25.60;1.00;;;;;;5033732;28;20174;-77
2022/07/11 11:13:04;;;;;;;0.20;0.20;;;25.90;1.00;;;;;;5033796;28;20196;-77
2022/07/11 11:15:48;;;;;;;0.30;0.30;;;26.30;1.00;;;;;;5034259;28;20199;-77
2022/07/11 11:18:26;;;;;;;0.30;0.30;;;26.40;1.00;;;;;;5034216;28;20329;-77
2022/07/11 11:23:29;;;;;;;0.30;0.30;;;26.20;1.00;;;;;;5033979;28;20205;-76
2022/07/11 11:26:03;;;;;;;0.40;0.40;;;26.00;1.00;;;;;;5033878;28;20207;-77
2022/07/11 11:28:28;;;;;;;0.40;0.40;;;25.80;1.00;;;;;;5032676;28;20182;-77
2022/07/11 11:30:55;;;;;;;0.40;0.40;;;25.70;1.00;;;;;;5033024;28;20266;-76
2022/07/11 11:33:21;;;;;;;0.40;0.40;;;25.40;1.00;;;;;;5033523;28;20240;-76
2022/07/11 11:36:12;;;;;;;0.40;0.40;;;25.60;1.00;;;;;;5033919;28;20192;-77
2022/07/11 11:38:39;;;;;;;0.47;0.47;;;26.40;1.00;;;;;;5033590;28;20180;-76
2022/07/11 11:41:06;;;;;;;0.30;0.30;;;26.70;1.00;;;;;;5032845;28;20214;-77
2022/07/11 11:43:32;;;;;;;0.30;0.30;;;27.10;1.00;;;;;;5033611;28;20246;-76
2022/07/11 11:45:58;;;;;;;0.40;0.40;;;27.20;1.00;;;;;;5033320;28;20223;-76
2022/07/11 11:48:37;;;;;;;0.47;0.47;;;27.70;1.00;;;;;;5033653;28;20175;-76
2022/07/11 11:51:08;;;;;;;0.40;0.40;;;27.90;1.00;;;;;;5032911;28;20188;-78
2022/07/11 11:53:46;;;;;;;0.40;0.40;;;27.60;1.00;;;;;;5033283;28;20204;-77
2022/07/11 11:56:20;;;;;;;0.30;0.30;;;27.20;1.00;;;;;;5033166;28;20186;-78
2022/07/11 11:58:46;;;;;;;0.30;0.30;;;27.00;1.00;;;;;;5033525;28;20175;-78
2022/07/11 12:01:13;;;;;;;0.40;0.40;;;27.10;1.00;;;;;;5032892;28;20183;-78
2022/07/11 12:03:54;;;;;;;0.40;0.40;;;27.00;1.00;;;;;;5032853;28;20203;-77
2022/07/11 12:06:29;;;;;;;0.30;0.30;;;27.00;1.00;;;;;;5032047;28;20214;-76
2022/07/11 12:09:12;;;;;;;0.30;0.30;;;26.80;1.00;;;;;;5030167;28;20211;-77
2022/07/11 12:11:39;;;;;;;0.40;0.40;;;26.80;1.00;;;;;;5031275;28;20608;-76
2022/07/11 12:14:14;;;;;;;0.30;0.30;;;26.80;1.00;;;;;;5032303;28;20182;-78
2022/07/11 12:16:48;;;;;;;0.40;0.40;;;26.70;1.00;;;;;;5032859;28;20167;-78
2022/07/11 12:19:15;;;;;;;0.40;0.40;;;26.70;1.00;;;;;;5030358;28;20237;-77
2022/07/11 12:21:43;;;;;;;0.43;0.43;;;26.70;1.00;;;;;;5032553;28;20168;-77
2022/07/11 12:24:20;;;;;;;0.43;0.43;;;26.50;1.00;;;;;;5029207;28;20188;-76
2022/07/11 12:26:47;;;;;;;0.30;0.30;;;26.60;1.00;;;;;;5032714;28;20211;-78
2022/07/11 12:29:19;;;;;;;0.40;0.40;;;26.50;1.00;;;;;;5032441;28;20433;-77
2022/07/11 12:31:55;;;;;;;0.50;0.50;;;26.60;1.00;;;;;;5032622;28;20306;-76
2022/07/11 12:34:33;;;;;;;0.30;0.30;;;26.50;1.00;;;;;;5032622;28;20198;-76
2022/07/11 12:37:02;;;;;;;0.30;0.30;;;26.20;1.00;;;;;;5032563;28;20270;-76
2022/07/11 12:39:30;;;;;;;0.30;0.30;;;25.90;1.00;;;;;;5031583;28;20176;-76
2022/07/11 12:41:57;;;;;;;0.40;0.40;;;25.60;1.00;;;;;;5032325;28;20695;-76
2022/07/11 12:47:08;;;;;;;0.30;0.30;;;25.50;1.00;;;;;;5031879;28;20787;-75
2022/07/11 12:49:34;;;;;;;0.30;0.30;;;25.80;1.00;;;;;;5031446;28;20373;-76
2022/07/11 12:52:02;;;;;;;0.40;0.40;;;26.20;1.00;;;;;;5032137;28;20696;-76
2022/07/11 12:54:33;;;;;;;0.20;0.20;;;26.60;1.00;;;;;;5032538;28;20701;-76
2022/07/11 12:57:01;;;;;;;0.30;0.30;;;26.90;1.00;;;;;;5032151;28;20599;-76
2022/07/11 12:59:28;;;;;;;0.37;0.37;;;27.10;1.00;;;;;;5031831;28;20262;-76
2022/07/11 13:02:14;;;;;;;0.40;0.40;;;27.30;1.00;;;;;;5032282;28;20222;-77
2022/07/11 13:04:42;;;;;;;0.30;0.30;;;27.30;1.00;;;;;;5031734;28;20168;-78
2022/07/11 13:10:22;;;;;;;0.40;0.40;;;26.90;1.00;;;;;;5031708;28;20201;-78
2022/07/11 13:12:51;;;;;;;0.30;0.30;;;26.80;1.00;;;;;;5031635;28;20192;-79